createdAt,value
2022-11-05T00:01:09.109Z,17.46
2022-11-05T00:06:15.280Z,17.47
2022-11-05T00:11:18.964Z,17.39
2022-11-05T00:16:22.515Z,17.30
2022-11-05T00:21:27.722Z,17.14
2022-11-05T00:26:32.718Z,17.11
2022-11-05T00:31:36.305Z,17.09
2022-11-05T00:36:41.503Z,17.09
2022-11-05T00:41:45.273Z,17.13
2022-11-05T00:46:48.794Z,16.99
2022-11-05T00:51:53.961Z,16.88
2022-11-05T00:57:01.954Z,16.74
2022-11-05T01:02:07.980Z,16.97
2022-11-05T01:07:13.196Z,16.68
2022-11-05T01:12:16.745Z,16.54
2022-11-05T01:17:20.291Z,16.45
2022-11-05T01:22:25.581Z,16.36
2022-11-05T01:27:29.084Z,16.36
2022-11-05T01:32:32.646Z,16.22
2022-11-05T01:37:37.870Z,16.16
2022-11-05T01:42:41.533Z,16.00
2022-11-05T01:47:56.270Z,15.84
2022-11-05T01:53:09.303Z,15.61
2022-11-05T01:58:17.180Z,15.44
2022-11-05T02:03:20.876Z,15.33
2022-11-05T02:08:37.700Z,15.21
2022-11-05T02:13:41.755Z,15.10
2022-11-05T02:18:54.765Z,14.87
2022-11-05T02:24:31.998Z,14.88
2022-11-05T02:30:09.038Z,14.70
2022-11-05T02:35:27.712Z,14.60
2022-11-05T02:40:36.981Z,14.50
2022-11-05T02:45:49.447Z,14.29
2022-11-05T02:51:01.364Z,14.18
2022-11-05T02:56:10.108Z,14.12
2022-11-05T03:01:14.178Z,14.11
2022-11-05T03:06:45.260Z,13.99
2022-11-05T03:12:00.273Z,13.88
2022-11-05T03:17:13.414Z,13.79
2022-11-05T03:22:24.290Z,13.75
2022-11-05T03:27:32.134Z,13.60
2022-11-05T03:32:39.336Z,13.47
2022-11-05T03:37:48.051Z,13.46
2022-11-05T03:42:56.281Z,13.33
2022-11-05T03:48:02.541Z,13.29
2022-11-05T03:53:15.138Z,13.22
2022-11-05T03:58:22.861Z,13.06
2022-11-05T04:03:26.422Z,12.98
2022-11-05T04:08:31.594Z,12.94
2022-11-05T04:13:35.365Z,12.89
2022-11-05T04:18:38.961Z,12.91
2022-11-05T04:23:44.174Z,12.87
2022-11-05T04:28:47.740Z,12.81
2022-11-05T04:33:51.309Z,12.77
2022-11-05T04:38:56.497Z,12.76
2022-11-05T04:44:00.112Z,12.75
2022-11-05T04:49:03.661Z,12.65
2022-11-05T04:54:08.869Z,12.54
2022-11-05T04:59:12.421Z,12.47
2022-11-05T05:04:15.959Z,12.36
2022-11-05T05:09:21.130Z,12.35
2022-11-05T05:14:24.673Z,12.36
2022-11-05T05:19:28.539Z,12.30
2022-11-05T05:24:33.751Z,12.28
2022-11-05T05:29:37.337Z,12.35
2022-11-05T05:34:40.896Z,12.48
2022-11-05T05:39:46.223Z,12.56
2022-11-05T05:44:49.846Z,12.63
2022-11-05T05:49:53.386Z,12.71
2022-11-05T05:54:58.538Z,12.69
2022-11-05T06:00:02.104Z,12.72
2022-11-05T06:05:06.231Z,12.75
2022-11-05T06:10:11.817Z,12.76
2022-11-05T06:15:15.504Z,12.76
2022-11-05T06:20:19.316Z,12.77
2022-11-05T06:25:24.887Z,12.55
2022-11-05T06:30:28.563Z,12.56
2022-11-05T06:35:32.864Z,12.55
2022-11-05T06:40:38.044Z,12.52
2022-11-05T06:45:41.603Z,12.42
2022-11-05T06:50:46.417Z,12.38
2022-11-05T06:55:51.604Z,12.35
2022-11-05T07:00:55.195Z,12.22
2022-11-05T07:06:00.473Z,12.29
2022-11-05T07:11:06.277Z,12.19
2022-11-05T07:16:09.992Z,12.18
2022-11-05T07:21:13.535Z,12.19
2022-11-05T07:26:18.726Z,12.25
2022-11-05T07:31:22.337Z,12.17
2022-11-05T07:36:25.995Z,12.10
2022-11-05T07:41:31.221Z,12.18
2022-11-05T07:46:34.754Z,12.24
2022-11-05T07:51:38.302Z,12.23
2022-11-05T07:56:43.456Z,12.22
2022-11-05T08:01:47.200Z,12.09
2022-11-05T08:06:50.828Z,12.16
2022-11-05T08:11:59.907Z,12.00
2022-11-05T08:17:06.318Z,12.06
2022-11-05T08:22:09.907Z,12.22
2022-11-05T08:27:15.134Z,12.20
2022-11-05T08:32:18.694Z,12.23
2022-11-05T08:37:22.941Z,12.17
2022-11-05T08:42:28.160Z,12.16
2022-11-05T08:47:31.680Z,12.09
2022-11-05T08:52:35.252Z,12.10
2022-11-05T08:57:40.412Z,11.78
2022-11-05T09:02:44.115Z,11.78
2022-11-05T09:07:47.738Z,11.90
2022-11-05T09:12:52.891Z,11.93
2022-11-05T09:17:56.926Z,12.04
2022-11-05T09:23:00.646Z,12.07
2022-11-05T09:28:16.730Z,12.09
2022-11-05T09:33:22.517Z,12.11
2022-11-05T09:38:26.065Z,12.20
2022-11-05T09:43:35.573Z,12.26
2022-11-05T09:48:42.109Z,12.23
2022-11-05T09:53:47.125Z,12.24
2022-11-05T09:58:57.980Z,12.27
2022-11-05T10:04:08.145Z,12.23
2022-11-05T10:09:20.031Z,12.31
2022-11-05T10:14:29.311Z,12.28
2022-11-05T10:19:42.214Z,12.30
2022-11-05T10:24:47.549Z,12.40
2022-11-05T10:29:52.881Z,12.43
2022-11-05T10:34:59.657Z,12.42
2022-11-05T10:40:03.314Z,12.36
2022-11-05T10:45:17.649Z,12.43
2022-11-05T10:50:24.310Z,12.49
2022-11-05T10:55:30.042Z,12.51
2022-11-05T11:00:35.409Z,12.55
2022-11-05T11:05:40.837Z,12.57
2022-11-05T11:10:51.390Z,12.55
2022-11-05T11:16:13.703Z,12.55
2022-11-05T11:21:19.587Z,12.62
2022-11-05T11:26:24.583Z,12.65
2022-11-05T11:31:32.132Z,12.66
2022-11-05T11:36:39.989Z,12.63
2022-11-05T11:41:47.014Z,12.62
2022-11-05T11:46:54.313Z,12.62
2022-11-05T11:52:12.621Z,12.70
2022-11-05T11:57:24.223Z,12.66
2022-11-05T12:03:17.684Z,12.72
2022-11-05T12:08:47.050Z,12.72
2022-11-05T12:14:13.819Z,12.69
2022-11-05T12:19:32.226Z,12.69
2022-11-05T12:24:52.732Z,12.77
2022-11-05T12:30:03.801Z,12.81
2022-11-05T12:35:21.377Z,12.81
2022-11-05T12:40:55.317Z,12.90
2022-11-05T12:46:07.249Z,12.95
2022-11-05T12:51:22.575Z,12.97
2022-11-05T12:56:32.603Z,12.93
2022-11-05T13:01:40.487Z,12.91
2022-11-05T13:06:51.622Z,12.89
2022-11-05T13:11:58.538Z,12.91
2022-11-05T13:17:06.189Z,12.91
2022-11-05T13:22:20.913Z,12.91
2022-11-05T13:27:42.665Z,12.91
2022-11-05T13:32:50.858Z,12.98
2022-11-05T13:38:00.185Z,12.96
2022-11-05T13:43:44.531Z,13.07
2022-11-05T13:49:09.657Z,13.06
2022-11-05T13:54:47.921Z,13.12
2022-11-05T14:00:06.389Z,13.12
2022-11-05T14:05:24.519Z,13.20
2022-11-05T14:10:36.308Z,13.23
2022-11-05T14:15:52.788Z,13.08
2022-11-05T14:21:01.314Z,13.12
2022-11-05T14:26:17.209Z,13.12
2022-11-05T14:31:54.529Z,13.19
2022-11-05T14:37:24.019Z,13.13
2022-11-05T14:42:29.609Z,13.04
2022-11-05T14:47:38.009Z,13.00
2022-11-05T14:52:51.149Z,13.03
2022-11-05T14:58:23.932Z,13.07
2022-11-05T15:03:54.693Z,13.12
2022-11-05T15:09:24.557Z,13.09
2022-11-05T15:14:32.570Z,13.18
2022-11-05T15:19:39.289Z,13.21
2022-11-05T15:24:43.941Z,13.14
2022-11-05T15:29:47.541Z,13.19
2022-11-05T15:34:56.823Z,13.30
2022-11-05T15:40:00.396Z,13.37
2022-11-05T15:45:04.000Z,13.47
2022-11-05T15:50:16.678Z,13.53
2022-11-05T15:55:21.676Z,13.62
2022-11-05T16:00:27.155Z,13.63
2022-11-05T16:05:35.301Z,13.73
2022-11-05T16:10:40.198Z,13.82
2022-11-05T16:15:54.813Z,13.84
2022-11-05T16:21:04.873Z,13.96
2022-11-05T16:26:48.030Z,14.10
2022-11-05T16:31:52.188Z,14.26
2022-11-05T16:36:59.979Z,14.47
2022-11-05T16:42:20.598Z,14.61
2022-11-05T16:47:24.911Z,14.82
2022-11-05T16:52:30.530Z,14.99
2022-11-05T16:57:34.211Z,15.08
2022-11-05T17:02:37.920Z,15.12
2022-11-05T17:07:43.202Z,15.85
2022-11-05T17:12:47.419Z,16.31
2022-11-05T17:17:51.753Z,16.10
2022-11-05T17:22:57.731Z,16.03
2022-11-05T17:28:00.554Z,16.08
2022-11-05T17:33:04.292Z,16.30
2022-11-05T17:38:09.978Z,16.46
2022-11-05T17:43:13.857Z,16.39
2022-11-05T17:48:18.544Z,16.48
2022-11-05T17:53:23.825Z,16.46
2022-11-05T17:58:27.366Z,16.74
2022-11-05T18:03:32.391Z,16.95
2022-11-05T18:08:37.545Z,16.44
2022-11-05T18:13:41.101Z,16.22
2022-11-05T18:18:44.659Z,16.45
2022-11-05T18:23:49.859Z,16.45
2022-11-05T18:28:53.411Z,16.70
2022-11-05T18:33:58.843Z,16.71
2022-11-05T18:39:05.276Z,16.95
2022-11-05T18:44:08.881Z,17.21
2022-11-05T18:49:12.427Z,17.30
2022-11-05T18:54:17.707Z,17.17
2022-11-05T18:59:36.670Z,17.26
2022-11-05T19:05:00.350Z,17.44
2022-11-05T19:10:08.689Z,17.31
2022-11-05T19:15:12.538Z,17.48
2022-11-05T19:20:16.212Z,17.39
2022-11-05T19:25:21.465Z,17.50
2022-11-05T19:30:25.102Z,17.31
2022-11-05T19:35:28.640Z,17.27
2022-11-05T19:40:33.853Z,17.41
2022-11-05T19:45:44.693Z,17.47
2022-11-05T19:50:48.919Z,17.61
2022-11-05T19:55:54.128Z,17.51
2022-11-05T20:00:57.678Z,17.78
2022-11-05T20:06:03.698Z,17.43
2022-11-05T20:11:09.184Z,17.54
2022-11-05T20:16:21.074Z,17.82
2022-11-05T20:21:24.619Z,17.86
2022-11-05T20:26:30.664Z,18.02
2022-11-05T20:31:34.201Z,18.06
2022-11-05T20:36:39.275Z,18.30
2022-11-05T20:41:44.485Z,18.40
2022-11-05T20:46:48.030Z,18.33
2022-11-05T20:51:51.610Z,18.45
2022-11-05T20:56:56.821Z,18.46
2022-11-05T21:02:00.474Z,18.56
2022-11-05T21:07:04.192Z,18.54
2022-11-05T21:12:10.720Z,18.65
2022-11-05T21:17:14.371Z,19.01
2022-11-05T21:22:17.993Z,19.26
2022-11-05T21:27:23.202Z,19.13
2022-11-05T21:32:26.736Z,19.33
2022-11-05T21:37:30.267Z,19.44
2022-11-05T21:42:35.472Z,19.62
2022-11-05T21:47:38.983Z,19.47
2022-11-05T21:52:42.513Z,19.37
2022-11-05T21:57:48.016Z,19.65
2022-11-05T22:02:50.927Z,20.07
2022-11-05T22:07:54.566Z,20.41
2022-11-05T22:12:59.716Z,20.56
2022-11-05T22:18:03.322Z,20.65
2022-11-05T22:23:11.109Z,20.47
2022-11-05T22:28:16.613Z,20.39
2022-11-05T22:33:20.207Z,20.62
2022-11-05T22:38:23.755Z,20.58
2022-11-05T22:43:28.927Z,20.42
2022-11-05T22:48:33.014Z,20.46
2022-11-05T22:53:37.419Z,20.25
2022-11-05T22:58:42.801Z,19.97
2022-11-05T23:03:46.276Z,19.59
2022-11-05T23:08:49.833Z,19.67
2022-11-05T23:13:55.251Z,19.73
2022-11-05T23:18:58.028Z,19.60
2022-11-05T23:24:01.568Z,19.45
2022-11-05T23:29:06.760Z,19.46
2022-11-05T23:34:10.304Z,19.38
2022-11-05T23:39:13.875Z,18.86
2022-11-05T23:44:21.680Z,18.75
2022-11-05T23:49:25.262Z,18.63
2022-11-05T23:54:28.849Z,18.49
2022-11-05T23:59:34.065Z,18.56
